sensor_id;sensor_type;location;lat;lon;timestamp;temperature;humidity
25839;DHT22;13669;50.186;27.062;2022-08-19T00:01:55;19.90;99.90
25839;DHT22;13669;50.186;27.062;2022-08-19T00:04:29;19.80;99.90
25839;DHT22;13669;50.186;27.062;2022-08-19T00:06:58;19.70;99.90
25839;DHT22;13669;50.186;27.062;2022-08-19T00:09:26;19.70;99.90
25839;DHT22;13669;50.186;27.062;2022-08-19T00:11:55;19.60;99.90
25839;DHT22;13669;50.186;27.062;2022-08-19T00:14:24;19.50;99.90
25839;DHT22;13669;50.186;27.062;2022-08-19T00:16:52;19.60;99.90
25839;DHT22;13669;50.186;27.062;2022-08-19T00:19:22;19.50;99.90
25839;DHT22;13669;50.186;27.062;2022-08-19T00:21:50;19.50;99.90
25839;DHT22;13669;50.186;27.062;2022-08-19T00:24:18;19.50;99.90
25839;DHT22;13669;50.186;27.062;2022-08-19T00:26:46;19.50;99.90
25839;DHT22;13669;50.186;27.062;2022-08-19T00:29:16;19.60;99.90
25839;DHT22;13669;50.186;27.062;2022-08-19T00:31:44;19.60;99.90
25839;DHT22;13669;50.186;27.062;2022-08-19T00:34:13;19.70;99.90
25839;DHT22;13669;50.186;27.062;2022-08-19T00:36:42;19.70;99.90
25839;DHT22;13669;50.186;27.062;2022-08-19T00:39:10;19.70;99.90
25839;DHT22;13669;50.186;27.062;2022-08-19T00:41:40;19.60;99.90
25839;DHT22;13669;50.186;27.062;2022-08-19T00:44:13;19.60;99.90
25839;DHT22;13669;50.186;27.062;2022-08-19T00:46:44;19.60;94.00
25839;DHT22;13669;50.186;27.062;2022-08-19T00:52:01;19.40;96.10
25839;DHT22;13669;50.186;27.062;2022-08-19T00:54:29;19.30;99.90
25839;DHT22;13669;50.186;27.062;2022-08-19T00:56:59;19.30;99.90
25839;DHT22;13669;50.186;27.062;2022-08-19T00:59:29;19.20;99.90
25839;DHT22;13669;50.186;27.062;2022-08-19T01:02:16;19.20;99.90
25839;DHT22;13669;50.186;27.062;2022-08-19T01:04:44;19.20;99.90
25839;DHT22;13669;50.186;27.062;2022-08-19T01:07:12;19.20;99.90
25839;DHT22;13669;50.186;27.062;2022-08-19T01:09:43;19.20;99.90
25839;DHT22;13669;50.186;27.062;2022-08-19T01:12:11;19.10;99.90
25839;DHT22;13669;50.186;27.062;2022-08-19T01:14:39;19.10;99.90
25839;DHT22;13669;50.186;27.062;2022-08-19T01:17:08;19.10;99.90
25839;DHT22;13669;50.186;27.062;2022-08-19T01:19:40;19.10;99.90
25839;DHT22;13669;50.186;27.062;2022-08-19T01:22:48;19.00;99.90
25839;DHT22;13669;50.186;27.062;2022-08-19T01:25:16;19.00;99.90
25839;DHT22;13669;50.186;27.062;2022-08-19T01:27:46;19.00;99.90
25839;DHT22;13669;50.186;27.062;2022-08-19T01:30:34;18.90;99.90
25839;DHT22;13669;50.186;27.062;2022-08-19T01:33:02;18.90;99.90
25839;DHT22;13669;50.186;27.062;2022-08-19T01:35:32;18.90;99.90
25839;DHT22;13669;50.186;27.062;2022-08-19T01:38:07;18.90;99.90
25839;DHT22;13669;50.186;27.062;2022-08-19T01:40:38;18.80;99.90
25839;DHT22;13669;50.186;27.062;2022-08-19T01:43:06;18.80;99.90
25839;DHT22;13669;50.186;27.062;2022-08-19T01:45:34;18.70;99.90
25839;DHT22;13669;50.186;27.062;2022-08-19T01:48:03;18.70;99.90
25839;DHT22;13669;50.186;27.062;2022-08-19T01:50:32;18.60;99.90
25839;DHT22;13669;50.186;27.062;2022-08-19T01:53:02;18.60;99.90
25839;DHT22;13669;50.186;27.062;2022-08-19T01:55:35;18.70;99.90
25839;DHT22;13669;50.186;27.062;2022-08-19T01:58:12;18.70;99.90
25839;DHT22;13669;50.186;27.062;2022-08-19T02:00:40;18.70;99.90
25839;DHT22;13669;50.186;27.062;2022-08-19T02:03:08;18.60;99.90
25839;DHT22;13669;50.186;27.062;2022-08-19T02:05:37;18.60;99.90
25839;DHT22;13669;50.186;27.062;2022-08-19T02:08:05;18.50;99.90
25839;DHT22;13669;50.186;27.062;2022-08-19T02:10:32;18.50;99.90
25839;DHT22;13669;50.186;27.062;2022-08-19T02:13:00;18.60;99.90
25839;DHT22;13669;50.186;27.062;2022-08-19T02:15:27;18.60;99.90
25839;DHT22;13669;50.186;27.062;2022-08-19T02:17:55;18.60;99.90
25839;DHT22;13669;50.186;27.062;2022-08-19T02:20:23;18.60;99.90
25839;DHT22;13669;50.186;27.062;2022-08-19T02:22:50;18.60;99.90
25839;DHT22;13669;50.186;27.062;2022-08-19T02:25:18;18.60;99.90
25839;DHT22;13669;50.186;27.062;2022-08-19T02:27:46;18.60;99.90
25839;DHT22;13669;50.186;27.062;2022-08-19T02:30:16;18.60;99.90
25839;DHT22;13669;50.186;27.062;2022-08-19T02:32:44;18.60;99.90
25839;DHT22;13669;50.186;27.062;2022-08-19T02:35:13;18.60;97.70
25839;DHT22;13669;50.186;27.062;2022-08-19T02:37:41;18.60;95.70
25839;DHT22;13669;50.186;27.062;2022-08-19T02:40:28;18.60;91.40
25839;DHT22;13669;50.186;27.062;2022-08-19T02:42:56;18.60;91.90
25839;DHT22;13669;50.186;27.062;2022-08-19T02:45:24;18.50;99.90
25839;DHT22;13669;50.186;27.062;2022-08-19T02:47:51;18.50;94.00
25839;DHT22;13669;50.186;27.062;2022-08-19T02:50:20;18.50;97.00
25839;DHT22;13669;50.186;27.062;2022-08-19T02:52:47;18.50;97.10
25839;DHT22;13669;50.186;27.062;2022-08-19T02:55:15;18.60;87.40
25839;DHT22;13669;50.186;27.062;2022-08-19T02:57:42;18.60;72.70
25839;DHT22;13669;50.186;27.062;2022-08-19T03:00:10;18.60;56.10
25839;DHT22;13669;50.186;27.062;2022-08-19T03:02:41;18.70;41.30
25839;DHT22;13669;50.186;27.062;2022-08-19T03:05:10;18.70;48.20
25839;DHT22;13669;50.186;27.062;2022-08-19T03:07:38;18.70;39.70
25839;DHT22;13669;50.186;27.062;2022-08-19T03:10:06;18.60;43.40
25839;DHT22;13669;50.186;27.062;2022-08-19T03:12:38;18.50;53.60
25839;DHT22;13669;50.186;27.062;2022-08-19T03:15:07;18.50;84.80
25839;DHT22;13669;50.186;27.062;2022-08-19T03:17:35;18.50;87.40
25839;DHT22;13669;50.186;27.062;2022-08-19T03:20:03;18.40;79.50
25839;DHT22;13669;50.186;27.062;2022-08-19T03:22:31;18.40;73.60
25839;DHT22;13669;50.186;27.062;2022-08-19T03:24:58;18.50;62.40
25839;DHT22;13669;50.186;27.062;2022-08-19T03:27:26;18.50;68.30
25839;DHT22;13669;50.186;27.062;2022-08-19T03:30:00;18.50;49.60
25839;DHT22;13669;50.186;27.062;2022-08-19T03:32:29;18.50;89.40
25839;DHT22;13669;50.186;27.062;2022-08-19T03:34:59;18.50;83.70
25839;DHT22;13669;50.186;27.062;2022-08-19T03:37:27;18.40;95.80
25839;DHT22;13669;50.186;27.062;2022-08-19T03:39:55;18.50;71.60
25839;DHT22;13669;50.186;27.062;2022-08-19T03:42:23;18.40;57.50
25839;DHT22;13669;50.186;27.062;2022-08-19T03:44:59;18.50;43.40
25839;DHT22;13669;50.186;27.062;2022-08-19T03:47:27;18.60;36.40
25839;DHT22;13669;50.186;27.062;2022-08-19T03:49:54;18.60;28.30
25839;DHT22;13669;50.186;27.062;2022-08-19T03:52:22;18.70;19.20
25839;DHT22;13669;50.186;27.062;2022-08-19T03:54:50;18.70;29.40
25839;DHT22;13669;50.186;27.062;2022-08-19T03:57:17;18.60;36.60
25839;DHT22;13669;50.186;27.062;2022-08-19T03:59:45;18.70;28.50
25839;DHT22;13669;50.186;27.062;2022-08-19T04:02:13;18.70;25.30
25839;DHT22;13669;50.186;27.062;2022-08-19T04:04:42;18.70;28.10
25839;DHT22;13669;50.186;27.062;2022-08-19T04:07:12;18.70;45.80
25839;DHT22;13669;50.186;27.062;2022-08-19T04:09:43;18.70;49.00
25839;DHT22;13669;50.186;27.062;2022-08-19T04:12:10;18.70;57.10
25839;DHT22;13669;50.186;27.062;2022-08-19T04:14:38;18.70;77.60
25839;DHT22;13669;50.186;27.062;2022-08-19T04:17:06;18.70;80.60
25839;DHT22;13669;50.186;27.062;2022-08-19T04:19:35;18.80;79.80
25839;DHT22;13669;50.186;27.062;2022-08-19T04:22:03;18.80;63.60
25839;DHT22;13669;50.186;27.062;2022-08-19T04:24:31;18.90;63.40
25839;DHT22;13669;50.186;27.062;2022-08-19T04:27:00;19.00;49.00
25839;DHT22;13669;50.186;27.062;2022-08-19T04:29:29;19.00;48.60
25839;DHT22;13669;50.186;27.062;2022-08-19T04:31:58;19.10;34.00
25839;DHT22;13669;50.186;27.062;2022-08-19T04:34:35;19.20;21.10
25839;DHT22;13669;50.186;27.062;2022-08-19T04:37:22;19.30;3.40
25839;DHT22;13669;50.186;27.062;2022-08-19T04:39:50;19.30;1.00
25839;DHT22;13669;50.186;27.062;2022-08-19T04:42:36;19.40;1.00
25839;DHT22;13669;50.186;27.062;2022-08-19T04:45:09;19.50;1.00
25839;DHT22;13669;50.186;27.062;2022-08-19T04:47:41;19.60;1.00
25839;DHT22;13669;50.186;27.062;2022-08-19T04:50:18;19.70;1.00
25839;DHT22;13669;50.186;27.062;2022-08-19T04:52:45;19.80;1.00
25839;DHT22;13669;50.186;27.062;2022-08-19T04:55:13;19.90;1.00
25839;DHT22;13669;50.186;27.062;2022-08-19T04:57:41;20.00;1.00
25839;DHT22;13669;50.186;27.062;2022-08-19T05:00:10;20.00;1.00
25839;DHT22;13669;50.186;27.062;2022-08-19T05:02:38;20.10;99.90
25839;DHT22;13669;50.186;27.062;2022-08-19T05:05:06;20.10;99.90
25839;DHT22;13669;50.186;27.062;2022-08-19T05:07:34;20.20;99.90
25839;DHT22;13669;50.186;27.062;2022-08-19T05:10:04;20.20;99.90
25839;DHT22;13669;50.186;27.062;2022-08-19T05:12:32;20.20;99.90
25839;DHT22;13669;50.186;27.062;2022-08-19T05:15:00;20.30;99.90
25839;DHT22;13669;50.186;27.062;2022-08-19T05:17:29;20.40;99.90
25839;DHT22;13669;50.186;27.062;2022-08-19T05:20:05;20.40;99.90
25839;DHT22;13669;50.186;27.062;2022-08-19T05:22:52;20.50;99.90
25839;DHT22;13669;50.186;27.062;2022-08-19T05:25:21;20.60;16.90
25839;DHT22;13669;50.186;27.062;2022-08-19T05:27:48;20.70;1.00
25839;DHT22;13669;50.186;27.062;2022-08-19T05:30:16;20.70;1.00
25839;DHT22;13669;50.186;27.062;2022-08-19T05:32:46;20.80;1.00
25839;DHT22;13669;50.186;27.062;2022-08-19T05:35:14;20.80;1.00
25839;DHT22;13669;50.186;27.062;2022-08-19T05:37:41;20.90;99.90
25839;DHT22;13669;50.186;27.062;2022-08-19T05:40:09;21.00;99.90
25839;DHT22;13669;50.186;27.062;2022-08-19T05:42:37;21.00;99.90
25839;DHT22;13669;50.186;27.062;2022-08-19T05:45:07;21.10;19.80
25839;DHT22;13669;50.186;27.062;2022-08-19T05:47:34;21.20;1.00
25839;DHT22;13669;50.186;27.062;2022-08-19T05:50:08;21.30;1.00
25839;DHT22;13669;50.186;27.062;2022-08-19T05:52:37;21.40;99.90
25839;DHT22;13669;50.186;27.062;2022-08-19T05:55:16;21.40;99.90
25839;DHT22;13669;50.186;27.062;2022-08-19T05:57:44;21.40;92.70
25839;DHT22;13669;50.186;27.062;2022-08-19T06:00:12;21.50;1.00
25839;DHT22;13669;50.186;27.062;2022-08-19T06:02:40;21.60;1.00
25839;DHT22;13669;50.186;27.062;2022-08-19T06:05:08;21.70;99.90
25839;DHT22;13669;50.186;27.062;2022-08-19T06:07:37;21.80;53.60
25839;DHT22;13669;50.186;27.062;2022-08-19T06:10:08;21.90;1.00
25839;DHT22;13669;50.186;27.062;2022-08-19T06:12:37;21.90;1.00
25839;DHT22;13669;50.186;27.062;2022-08-19T06:15:11;22.00;99.90
25839;DHT22;13669;50.186;27.062;2022-08-19T06:17:39;22.10;99.90
25839;DHT22;13669;50.186;27.062;2022-08-19T06:20:11;22.20;26.10
25839;DHT22;13669;50.186;27.062;2022-08-19T06:22:46;22.30;12.20
25839;DHT22;13669;50.186;27.062;2022-08-19T06:25:17;22.40;1.00
25839;DHT22;13669;50.186;27.062;2022-08-19T06:27:45;22.40;99.90
25839;DHT22;13669;50.186;27.062;2022-08-19T06:30:33;22.50;99.90
25839;DHT22;13669;50.186;27.062;2022-08-19T06:33:00;22.60;19.10
25839;DHT22;13669;50.186;27.062;2022-08-19T06:35:28;22.60;75.70
25839;DHT22;13669;50.186;27.062;2022-08-19T06:37:56;22.60;99.90
25839;DHT22;13669;50.186;27.062;2022-08-19T06:40:25;22.70;99.70
25839;DHT22;13669;50.186;27.062;2022-08-19T06:42:54;22.80;99.90
25839;DHT22;13669;50.186;27.062;2022-08-19T06:45:23;22.90;99.90
25839;DHT22;13669;50.186;27.062;2022-08-19T06:48:02;23.00;65.90
25839;DHT22;13669;50.186;27.062;2022-08-19T06:50:30;23.10;99.90
25839;DHT22;13669;50.186;27.062;2022-08-19T06:52:57;23.20;5.40
25839;DHT22;13669;50.186;27.062;2022-08-19T06:55:30;23.30;99.90
25839;DHT22;13669;50.186;27.062;2022-08-19T06:58:02;23.40;99.90
25839;DHT22;13669;50.186;27.062;2022-08-19T07:00:31;23.50;99.90
25839;DHT22;13669;50.186;27.062;2022-08-19T07:02:59;23.60;82.70
25839;DHT22;13669;50.186;27.062;2022-08-19T07:05:41;23.60;1.00
25839;DHT22;13669;50.186;27.062;2022-08-19T07:08:13;23.70;99.90
25839;DHT22;13669;50.186;27.062;2022-08-19T07:10:45;23.70;76.50
25839;DHT22;13669;50.186;27.062;2022-08-19T07:13:13;23.80;99.90
25839;DHT22;13669;50.186;27.062;2022-08-19T07:15:41;23.80;99.90
25839;DHT22;13669;50.186;27.062;2022-08-19T07:18:10;23.90;1.00
25839;DHT22;13669;50.186;27.062;2022-08-19T07:20:39;24.00;1.00
25839;DHT22;13669;50.186;27.062;2022-08-19T07:23:09;24.10;1.00
25839;DHT22;13669;50.186;27.062;2022-08-19T07:25:43;24.10;1.00
25839;DHT22;13669;50.186;27.062;2022-08-19T07:28:19;24.20;1.00
25839;DHT22;13669;50.186;27.062;2022-08-19T07:30:52;24.20;1.00
25839;DHT22;13669;50.186;27.062;2022-08-19T07:33:19;24.30;1.00
25839;DHT22;13669;50.186;27.062;2022-08-19T07:35:48;24.40;99.90
25839;DHT22;13669;50.186;27.062;2022-08-19T07:38:17;24.40;99.90
25839;DHT22;13669;50.186;27.062;2022-08-19T07:40:45;24.40;99.90
25839;DHT22;13669;50.186;27.062;2022-08-19T07:43:13;24.40;99.90
25839;DHT22;13669;50.186;27.062;2022-08-19T07:45:44;24.50;99.90
25839;DHT22;13669;50.186;27.062;2022-08-19T07:48:12;24.60;27.90
25839;DHT22;13669;50.186;27.062;2022-08-19T07:50:40;24.70;1.00
25839;DHT22;13669;50.186;27.062;2022-08-19T07:53:07;24.80;1.00
25839;DHT22;13669;50.186;27.062;2022-08-19T07:55:35;24.80;1.00
25839;DHT22;13669;50.186;27.062;2022-08-19T07:58:11;24.90;1.00
25839;DHT22;13669;50.186;27.062;2022-08-19T08:00:39;25.00;1.00
25839;DHT22;13669;50.186;27.062;2022-08-19T08:03:07;25.10;1.00
25839;DHT22;13669;50.186;27.062;2022-08-19T08:05:35;25.10;1.00
25839;DHT22;13669;50.186;27.062;2022-08-19T08:08:22;25.10;1.00
25839;DHT22;13669;50.186;27.062;2022-08-19T08:11:16;25.20;99.90
25839;DHT22;13669;50.186;27.062;2022-08-19T08:13:46;25.20;99.90
25839;DHT22;13669;50.186;27.062;2022-08-19T08:16:34;25.30;99.90
25839;DHT22;13669;50.186;27.062;2022-08-19T08:19:13;25.20;99.90
25839;DHT22;13669;50.186;27.062;2022-08-19T08:21:56;25.30;99.90
25839;DHT22;13669;50.186;27.062;2022-08-19T08:24:25;25.50;99.90
25839;DHT22;13669;50.186;27.062;2022-08-19T08:26:54;25.50;99.90
25839;DHT22;13669;50.186;27.062;2022-08-19T08:29:24;25.60;99.90
25839;DHT22;13669;50.186;27.062;2022-08-19T08:31:52;25.50;90.80
25839;DHT22;13669;50.186;27.062;2022-08-19T08:34:26;25.60;97.70
25839;DHT22;13669;50.186;27.062;2022-08-19T08:36:53;25.60;99.90
25839;DHT22;13669;50.186;27.062;2022-08-19T08:39:21;25.70;99.90
25839;DHT22;13669;50.186;27.062;2022-08-19T08:45:05;25.90;99.90
25839;DHT22;13669;50.186;27.062;2022-08-19T08:47:39;25.80;1.00
25839;DHT22;13669;50.186;27.062;2022-08-19T08:50:13;25.80;1.00
25839;DHT22;13669;50.186;27.062;2022-08-19T08:52:48;25.80;1.00
25839;DHT22;13669;50.186;27.062;2022-08-19T08:55:23;25.90;1.00
25839;DHT22;13669;50.186;27.062;2022-08-19T08:58:04;25.90;1.00
25839;DHT22;13669;50.186;27.062;2022-08-19T09:00:38;25.90;1.00
25839;DHT22;13669;50.186;27.062;2022-08-19T09:03:09;26.00;1.00
25839;DHT22;13669;50.186;27.062;2022-08-19T09:06:07;26.10;1.00
25839;DHT22;13669;50.186;27.062;2022-08-19T09:11:58;26.40;1.00
25839;DHT22;13669;50.186;27.062;2022-08-19T09:14:32;26.40;1.00
25839;DHT22;13669;50.186;27.062;2022-08-19T09:17:18;26.40;1.00
25839;DHT22;13669;50.186;27.062;2022-08-19T09:19:55;26.50;1.00
25839;DHT22;13669;50.186;27.062;2022-08-19T09:22:24;26.50;1.00
25839;DHT22;13669;50.186;27.062;2022-08-19T09:24:54;26.60;1.00
25839;DHT22;13669;50.186;27.062;2022-08-19T09:27:23;26.70;1.00
25839;DHT22;13669;50.186;27.062;2022-08-19T09:30:14;26.90;99.90
25839;DHT22;13669;50.186;27.062;2022-08-19T09:32:42;27.00;99.90
25839;DHT22;13669;50.186;27.062;2022-08-19T09:35:11;27.00;99.90
25839;DHT22;13669;50.186;27.062;2022-08-19T09:37:40;26.90;99.90
25839;DHT22;13669;50.186;27.062;2022-08-19T09:40:11;26.90;99.90
25839;DHT22;13669;50.186;27.062;2022-08-19T09:42:39;26.90;99.90
25839;DHT22;13669;50.186;27.062;2022-08-19T09:45:18;26.90;99.90
25839;DHT22;13669;50.186;27.062;2022-08-19T09:47:49;27.00;99.90
25839;DHT22;13669;50.186;27.062;2022-08-19T09:50:21;27.30;99.90
25839;DHT22;13669;50.186;27.062;2022-08-19T09:52:49;27.40;99.90
25839;DHT22;13669;50.186;27.062;2022-08-19T09:55:24;27.50;99.90
25839;DHT22;13669;50.186;27.062;2022-08-19T09:58:00;27.60;93.30
25839;DHT22;13669;50.186;27.062;2022-08-19T10:00:28;27.60;25.00
25839;DHT22;13669;50.186;27.062;2022-08-19T10:02:57;27.70;2.90
25839;DHT22;13669;50.186;27.062;2022-08-19T10:05:25;27.70;1.00
25839;DHT22;13669;50.186;27.062;2022-08-19T10:08:30;27.80;1.00
25839;DHT22;13669;50.186;27.062;2022-08-19T10:10:59;27.70;1.00
25839;DHT22;13669;50.186;27.062;2022-08-19T10:13:47;27.70;1.00
25839;DHT22;13669;50.186;27.062;2022-08-19T10:16:18;27.70;1.00
25839;DHT22;13669;50.186;27.062;2022-08-19T10:18:47;27.80;1.00
25839;DHT22;13669;50.186;27.062;2022-08-19T10:21:17;27.80;1.00
25839;DHT22;13669;50.186;27.062;2022-08-19T10:23:47;27.70;1.00
25839;DHT22;13669;50.186;27.062;2022-08-19T10:26:22;27.70;1.00
25839;DHT22;13669;50.186;27.062;2022-08-19T10:28:53;27.70;1.00
25839;DHT22;13669;50.186;27.062;2022-08-19T10:31:29;27.80;1.00
25839;DHT22;13669;50.186;27.062;2022-08-19T10:34:17;27.90;1.00
25839;DHT22;13669;50.186;27.062;2022-08-19T10:36:55;28.10;1.00
25839;DHT22;13669;50.186;27.062;2022-08-19T10:39:32;28.20;1.00
25839;DHT22;13669;50.186;27.062;2022-08-19T10:42:09;28.30;1.00
25839;DHT22;13669;50.186;27.062;2022-08-19T10:44:40;28.50;1.00
25839;DHT22;13669;50.186;27.062;2022-08-19T10:47:08;28.60;1.00
25839;DHT22;13669;50.186;27.062;2022-08-19T10:49:51;28.60;1.00
25839;DHT22;13669;50.186;27.062;2022-08-19T10:52:40;28.60;1.00
25839;DHT22;13669;50.186;27.062;2022-08-19T10:55:22;28.80;1.00
25839;DHT22;13669;50.186;27.062;2022-08-19T10:58:14;28.90;1.00
25839;DHT22;13669;50.186;27.062;2022-08-19T11:00:42;29.30;1.00
25839;DHT22;13669;50.186;27.062;2022-08-19T11:03:13;29.70;1.00
25839;DHT22;13669;50.186;27.062;2022-08-19T11:05:40;30.10;1.00
25839;DHT22;13669;50.186;27.062;2022-08-19T11:08:08;31.00;1.00
25839;DHT22;13669;50.186;27.062;2022-08-19T11:10:51;31.70;1.00
25839;DHT22;13669;50.186;27.062;2022-08-19T11:13:21;33.00;99.90
25839;DHT22;13669;50.186;27.062;2022-08-19T11:15:58;33.60;99.90
25839;DHT22;13669;50.186;27.062;2022-08-19T11:18:31;33.60;99.90
25839;DHT22;13669;50.186;27.062;2022-08-19T11:21:07;34.60;99.90
25839;DHT22;13669;50.186;27.062;2022-08-19T11:23:35;35.60;99.90
25839;DHT22;13669;50.186;27.062;2022-08-19T11:26:02;36.30;99.90
25839;DHT22;13669;50.186;27.062;2022-08-19T11:28:30;36.60;99.90
25839;DHT22;13669;50.186;27.062;2022-08-19T11:30:58;37.10;99.90
25839;DHT22;13669;50.186;27.062;2022-08-19T11:33:25;37.30;99.90
25839;DHT22;13669;50.186;27.062;2022-08-19T11:35:53;37.40;99.90
25839;DHT22;13669;50.186;27.062;2022-08-19T11:38:21;37.30;99.90
25839;DHT22;13669;50.186;27.062;2022-08-19T11:40:59;37.60;99.90
25839;DHT22;13669;50.186;27.062;2022-08-19T11:43:28;38.10;99.90
25839;DHT22;13669;50.186;27.062;2022-08-19T11:46:10;37.70;99.90
25839;DHT22;13669;50.186;27.062;2022-08-19T11:48:39;37.30;99.90
25839;DHT22;13669;50.186;27.062;2022-08-19T11:51:20;37.50;99.90
25839;DHT22;13669;50.186;27.062;2022-08-19T11:53:49;37.70;99.90
25839;DHT22;13669;50.186;27.062;2022-08-19T11:56:18;38.30;99.90
25839;DHT22;13669;50.186;27.062;2022-08-19T11:58:47;39.00;99.90
25839;DHT22;13669;50.186;27.062;2022-08-19T12:01:17;39.40;99.90
25839;DHT22;13669;50.186;27.062;2022-08-19T12:03:46;39.40;99.90
25839;DHT22;13669;50.186;27.062;2022-08-19T12:06:20;39.70;99.90
25839;DHT22;13669;50.186;27.062;2022-08-19T12:08:52;39.30;99.90
25839;DHT22;13669;50.186;27.062;2022-08-19T12:11:21;39.70;99.90
25839;DHT22;13669;50.186;27.062;2022-08-19T12:13:49;40.10;99.90
25839;DHT22;13669;50.186;27.062;2022-08-19T12:16:27;40.20;99.90
25839;DHT22;13669;50.186;27.062;2022-08-19T12:18:56;39.90;99.90
25839;DHT22;13669;50.186;27.062;2022-08-19T12:21:27;39.80;99.90
25839;DHT22;13669;50.186;27.062;2022-08-19T12:23:58;39.90;99.90
25839;DHT22;13669;50.186;27.062;2022-08-19T12:26:28;39.70;99.90
25839;DHT22;13669;50.186;27.062;2022-08-19T12:28:56;39.40;99.90
25839;DHT22;13669;50.186;27.062;2022-08-19T12:31:27;39.40;99.90
25839;DHT22;13669;50.186;27.062;2022-08-19T12:33:55;39.50;99.90
25839;DHT22;13669;50.186;27.062;2022-08-19T12:36:24;39.60;99.90
25839;DHT22;13669;50.186;27.062;2022-08-19T12:38:52;39.80;99.90
25839;DHT22;13669;50.186;27.062;2022-08-19T12:41:21;39.50;99.90
25839;DHT22;13669;50.186;27.062;2022-08-19T12:43:57;39.80;99.90
25839;DHT22;13669;50.186;27.062;2022-08-19T12:46:30;39.90;99.90
25839;DHT22;13669;50.186;27.062;2022-08-19T12:48:59;40.40;99.90
25839;DHT22;13669;50.186;27.062;2022-08-19T12:51:35;40.60;99.90
25839;DHT22;13669;50.186;27.062;2022-08-19T12:54:03;40.50;99.90
25839;DHT22;13669;50.186;27.062;2022-08-19T12:56:32;40.80;99.90
25839;DHT22;13669;50.186;27.062;2022-08-19T12:59:04;41.00;99.90
25839;DHT22;13669;50.186;27.062;2022-08-19T13:01:32;41.10;99.90
25839;DHT22;13669;50.186;27.062;2022-08-19T13:04:00;41.10;99.90
25839;DHT22;13669;50.186;27.062;2022-08-19T13:06:27;40.80;99.90
25839;DHT22;13669;50.186;27.062;2022-08-19T13:08:55;40.30;99.90
25839;DHT22;13669;50.186;27.062;2022-08-19T13:11:25;40.40;99.90
25839;DHT22;13669;50.186;27.062;2022-08-19T13:13:53;40.70;99.90
25839;DHT22;13669;50.186;27.062;2022-08-19T13:16:22;40.80;99.90
25839;DHT22;13669;50.186;27.062;2022-08-19T13:18:50;40.70;99.90
25839;DHT22;13669;50.186;27.062;2022-08-19T13:21:20;40.20;99.90
25839;DHT22;13669;50.186;27.062;2022-08-19T13:23:49;40.10;99.90
25839;DHT22;13669;50.186;27.062;2022-08-19T13:26:18;40.60;99.90
25839;DHT22;13669;50.186;27.062;2022-08-19T13:28:45;40.80;99.90
25839;DHT22;13669;50.186;27.062;2022-08-19T13:31:33;41.10;99.90
25839;DHT22;13669;50.186;27.062;2022-08-19T13:34:28;41.10;99.90
25839;DHT22;13669;50.186;27.062;2022-08-19T13:36:58;40.70;99.90
25839;DHT22;13669;50.186;27.062;2022-08-19T13:39:26;40.30;99.90
25839;DHT22;13669;50.186;27.062;2022-08-19T13:41:54;40.30;99.90
25839;DHT22;13669;50.186;27.062;2022-08-19T13:44:22;40.30;99.90
25839;DHT22;13669;50.186;27.062;2022-08-19T13:46:49;40.40;99.90
25839;DHT22;13669;50.186;27.062;2022-08-19T13:49:20;40.60;99.90
25839;DHT22;13669;50.186;27.062;2022-08-19T13:51:48;40.40;99.90
25839;DHT22;13669;50.186;27.062;2022-08-19T13:54:16;39.60;99.90
25839;DHT22;13669;50.186;27.062;2022-08-19T13:56:44;38.40;99.90
25839;DHT22;13669;50.186;27.062;2022-08-19T13:59:12;37.90;99.90
25839;DHT22;13669;50.186;27.062;2022-08-19T14:01:40;38.40;99.90
25839;DHT22;13669;50.186;27.062;2022-08-19T14:04:08;39.00;99.90
25839;DHT22;13669;50.186;27.062;2022-08-19T14:06:36;39.60;99.90
25839;DHT22;13669;50.186;27.062;2022-08-19T14:09:04;39.90;99.90
25839;DHT22;13669;50.186;27.062;2022-08-19T14:11:32;38.80;99.90
25839;DHT22;13669;50.186;27.062;2022-08-19T14:14:00;38.60;99.90
25839;DHT22;13669;50.186;27.062;2022-08-19T14:16:27;39.00;99.90
25839;DHT22;13669;50.186;27.062;2022-08-19T14:18:57;39.10;99.90
25839;DHT22;13669;50.186;27.062;2022-08-19T14:21:25;39.30;99.90
25839;DHT22;13669;50.186;27.062;2022-08-19T14:23:53;39.30;99.90
25839;DHT22;13669;50.186;27.062;2022-08-19T14:26:21;39.20;99.90
25839;DHT22;13669;50.186;27.062;2022-08-19T14:28:50;39.30;99.90
25839;DHT22;13669;50.186;27.062;2022-08-19T14:31:19;39.60;99.90
25839;DHT22;13669;50.186;27.062;2022-08-19T14:33:47;39.70;99.90
25839;DHT22;13669;50.186;27.062;2022-08-19T14:36:15;39.50;99.90
25839;DHT22;13669;50.186;27.062;2022-08-19T14:38:43;39.30;99.90
25839;DHT22;13669;50.186;27.062;2022-08-19T14:41:19;39.40;99.90
25839;DHT22;13669;50.186;27.062;2022-08-19T14:43:48;39.50;99.90
25839;DHT22;13669;50.186;27.062;2022-08-19T14:46:20;38.90;99.90
25839;DHT22;13669;50.186;27.062;2022-08-19T14:48:51;38.40;99.90
25839;DHT22;13669;50.186;27.062;2022-08-19T14:51:20;38.00;99.90
25839;DHT22;13669;50.186;27.062;2022-08-19T14:53:49;37.50;99.90
25839;DHT22;13669;50.186;27.062;2022-08-19T14:56:19;36.80;99.90
25839;DHT22;13669;50.186;27.062;2022-08-19T14:58:48;36.30;99.90
25839;DHT22;13669;50.186;27.062;2022-08-19T15:01:21;35.80;99.90
25839;DHT22;13669;50.186;27.062;2022-08-19T15:03:49;35.50;99.90
25839;DHT22;13669;50.186;27.062;2022-08-19T15:06:21;35.40;99.90
25839;DHT22;13669;50.186;27.062;2022-08-19T15:08:49;35.40;99.90
25839;DHT22;13669;50.186;27.062;2022-08-19T15:11:21;35.50;99.90
25839;DHT22;13669;50.186;27.062;2022-08-19T15:13:50;36.10;99.90
25839;DHT22;13669;50.186;27.062;2022-08-19T15:16:18;36.90;99.90
25839;DHT22;13669;50.186;27.062;2022-08-19T15:18:48;37.50;99.90
25839;DHT22;13669;50.186;27.062;2022-08-19T15:21:17;37.70;99.90
25839;DHT22;13669;50.186;27.062;2022-08-19T15:23:55;37.80;99.90
25839;DHT22;13669;50.186;27.062;2022-08-19T15:26:23;37.80;99.90
25839;DHT22;13669;50.186;27.062;2022-08-19T15:28:53;37.90;99.90
25839;DHT22;13669;50.186;27.062;2022-08-19T15:31:21;37.70;99.90
25839;DHT22;13669;50.186;27.062;2022-08-19T15:33:56;37.60;99.90
25839;DHT22;13669;50.186;27.062;2022-08-19T15:36:26;37.60;99.90
25839;DHT22;13669;50.186;27.062;2022-08-19T15:38:55;37.40;99.90
25839;DHT22;13669;50.186;27.062;2022-08-19T15:41:25;37.30;99.90
25839;DHT22;13669;50.186;27.062;2022-08-19T15:43:56;37.10;99.90
25839;DHT22;13669;50.186;27.062;2022-08-19T15:46:27;36.80;99.90
25839;DHT22;13669;50.186;27.062;2022-08-19T15:48:55;36.40;99.90
25839;DHT22;13669;50.186;27.062;2022-08-19T15:51:28;36.10;99.90
25839;DHT22;13669;50.186;27.062;2022-08-19T15:53:57;35.60;99.90